x

Cape Cod - 24 Nm East Of Provincetown, Ma (44018) Wave Buoy

12:50pm - Tue 25th Apr 2017 All times are EDT. -4 hours from GMT.

  • Sig Wave height 4.9ft
  • Swell Direction
  • Peak Period 5s
  • Average Period 5s
  • Wind
    20mph, 25mph gusts
  • Sea Temp 44°f
  • Air Temp 46°f
  • Sea Pressure 1023.4mb
  • Cape Cod - 24 Nm East Of Provincetown, Ma
  • Cape Cod - 24 Nm East Of Provincetown, Ma

More Historic Weather Station data

Upgrade to MSW Pro to gain access to the past 30 days of data for over 8000 Wavebouys and Weather Stations around the globe.

Join Pro

Comparision Forecast

View Surf forecast
   
Tue 04/25 12:50pm 5ft 5s 5s 20 25 mph 1023.4mb 44f 46f
11:50am 4.5ft 5s 5s 20 25 mph 1024mb 44f 46f
10:50am 4.5ft 4s 4s 20 25 mph 1024.3mb 44f 47f
9:50am 4ft 4s 4s 20 25 mph 1024.4mb 44f 47f
8:50am 3.5ft 11s 4s 18 20 mph 1024.7mb 44f 46f
7:50am 3ft 14s 5s 18 20 mph 1024.4mb 44f 46f
6:50am 2.5ft 10s 5s 16 18 mph 1024.1mb 44f 46f
5:50am 3ft 13s 5s 13 16 mph 1023.6mb 44f 46f
4:50am 2.5ft 14s 5s 16 18 mph 1023.2mb 44f 45f
2:50am 2.5ft 11s 7s 11 13 mph 1023.8mb 44f 46f
1:50am 2.5ft 10s 7s 9 11 mph 1023.6mb 44f 46f
12:50am 2.5ft 10s 7s 9 11 mph 1023.4mb 44f 46f
Mon 04/24 11:50pm 2.5ft 10s 7s 11 13 mph 1023.3mb 44f 46f
10:50pm 3ft 10s 7s 9 11 mph 1023.1mb 44f 45f
9:50pm 2.5ft 10s 7s 9 11 mph 1023.2mb 44f 45f
8:50pm 3ft 8s 6s 9 11 mph 1023.2mb 45f 45f
7:50pm 3ft 10s 5s 11 13 mph 1022.7mb 45f 45f
6:50pm 3.5ft 11s 6s 13 16 mph 1022.4mb 45f 45f
5:50pm 3ft 11s 5s 13 16 mph 1022mb 45f 45f
4:50pm 3.5ft 11s 5s 11 13 mph 1022.1mb 45f 46f
3:50pm 3.5ft 10s 5s 11 13 mph 1021.9mb 45f 46f
2:50pm 3ft 10s 5s 13 16 mph 1022mb 45f 46f
1:50pm 3ft 10s 5s 13 16 mph 1022.3mb 45f 45f
12:50pm 3ft 9s 6s 13 16 mph 1022mb 45f 45f
11:50am 2.5ft 11s 6s 13 16 mph 1022.3mb 45f 45f
10:50am 3.5ft 11s 6s 13 16 mph 1022.2mb 45f 45f
9:50am 3.5ft 11s 6s 11 13 mph 1021.9mb 44f 45f
7:50am 3ft 11s 5s 16
mph
1021.3mb 44f 45f
6:50am 3.5ft 11s 6s 16 18 mph 1020.9mb 44f 45f
5:50am 3ft 11s 5s 13 16 mph 1020.3mb 44f 44f
4:50am 3.5ft 11s 6s 11 13 mph 1020mb 44f 45f
3:50am 3.5ft 11s 6s 13
mph
1019.6mb 44f 45f
2:50am 3.5ft 12s 6s 11 13 mph 1019.6mb 44f 44f
1:50am 4ft 11s 6s 13
mph
1019.8mb 44f 45f
12:50am 4.5ft 11s 7s 11 13 mph 1019.6mb 44f 45f
Sun 04/23 11:50pm 4.5ft 11s 7s 13 16 mph 1019.4mb 44f 45f
10:50pm 4.5ft 11s 6s 13 18 mph 1019.8mb 45f 45f
9:50pm 4.5ft 11s 6s 16 20 mph 1019.6mb 45f 45f
8:50pm 4ft 11s 6s 16 18 mph 1019.3mb 45f 44f
7:50pm 4.5ft 11s 7s 16 18 mph 1018.6mb 46f 44f
6:50pm 4.5ft 12s 7s 13 16 mph 1018.7mb 45f 45f
5:50pm 4.5ft 11s 7s 11 13 mph 1018.5mb 45f 46f
4:50pm 4.5ft 12s 7s 7
mph
1018.7mb 45f 46f
3:50pm 4.5ft 12s 7s 2 4 mph 1018.7mb 46f 46f
2:50pm 5ft 13s 7s 2
mph
1018.8mb 46f 45f
1:50pm 5ft 10s 7s 7
mph
1019mb 46f 44f
12:50pm 5ft 11s 7s 7 9 mph 1019.1mb 45f 44f
11:50am 5ft 13s 7s 9 11 mph 1018.8mb 44f 44f
10:50am 5.5ft 13s 7s 11 13 mph 1018.7mb 45f 44f
9:50am 5ft 7s 7s 9 11 mph 1018.2mb 44f 44f
8:50am 5ft 11s 7s 9 11 mph 1018mb 44f 44f
7:50am 5.5ft 10s 6s 7 9 mph 1017.3mb 44f 43f
6:50am 5ft 7s 6s 11 16 mph 1016.2mb 43f 43f
5:50am 5ft 8s 6s 16 18 mph 1015.1mb 43f 42f
4:50am 5.5ft 7s 6s 16 18 mph 1014.9mb 43f 42f
3:50am 5.5ft 8s 6s 13 16 mph 1014.8mb 43f 42f
2:50am 6ft 8s 6s 18 20 mph 1014.4mb 43f 42f
1:50am 6.5ft 8s 6s 18 22 mph 1014.3mb 43f 41f
12:50am 6ft 7s 5s 18 22 mph 1013.9mb 43f 41f
Sat 04/22 11:50pm 6.5ft 8s 6s 22 25 mph 1013.3mb 43f 41f
10:50pm 6.5ft 8s 6s 20 25 mph 1013.5mb 43f 41f
9:50pm 7ft 8s 6s 20 22 mph 1013.2mb 43f 41f
7:50pm 7ft 8s 6s 22 27 mph 1012.2mb 43f 42f
6:50pm 6ft 7s 6s 22 25 mph 1011.8mb 43f 42f
5:50pm 6ft 8s 6s 20 27 mph 1011.8mb 43f 42f
4:50pm 6ft 8s 6s 20 22 mph 1011.1mb 43f 42f
3:50pm 5.5ft 7s 6s 13 16 mph 1010.5mb 43f 43f
2:50pm 5.5ft 7s 6s 11 13 mph 1011.3mb 43f 43f
1:50pm 6ft 11s 6s 4 7 mph 1011.8mb 43f 44f
12:50pm 6ft 7s 6s 7 9 mph 1012.2mb 43f 44f
11:50am 6ft 7s 6s 9 11 mph 1012.2mb 43f 44f
10:50am 6ft 7s 6s 13 16 mph 1011.4mb 43f 44f
9:50am 7ft 10s 6s 13 18 mph 1012mb 43f 44f
7:50am 6ft 7s 6s 18 20 mph 1012.3mb 43f 43f
6:50am 6.5ft 7s 6s 16 18 mph 1012.6mb 43f 43f
5:50am 6ft 7s 6s 13 16 mph 1012.9mb 43f 44f
4:50am 6.5ft 7s 6s 11 13 mph 1013.1mb 43f 44f
3:50am 6ft 7s 6s 7
mph
1013.3mb 43f 44f
2:50am 6.5ft 7s 6s 9
mph
1013.3mb 43f 44f
1:50am 7ft 7s 6s 16 18 mph 1013.4mb 43f 45f
12:50am 7ft 7s 6s 16 20 mph 1013.8mb 43f 45f
Fri 04/21 11:50pm 7ft 7s 6s 20 25 mph 1014.2mb 43f 45f
10:50pm 7.5ft 7s 6s 20 25 mph 1014.7mb 43f 45f
9:50pm 7ft 7s 6s 20 27 mph 1015.2mb 43f 44f
7:50pm 7ft 7s 6s 25 29 mph 1015mb 43f 44f
6:50pm 7ft 6s 5s 25 29 mph 1015.7mb 43f 44f